sensor_id;sensor_type;location;lat;lon;timestamp;pressure;altitude;pressure_sealevel;temperature;humidity
13705;BME280;6924;52.122;9.952;2023-04-30T16:45:24;101065.78;;;14.33;48.41
13705;BME280;6924;52.122;9.952;2023-04-30T16:47:50;101066.16;;;14.71;38.75
13705;BME280;6924;52.122;9.952;2023-04-30T16:50:17;101066.28;;;14.66;37.82
13705;BME280;6924;52.122;9.952;2023-04-30T16:52:43;101056.50;;;14.50;37.32
13705;BME280;6924;52.122;9.952;2023-04-30T16:55:10;101049.44;;;14.38;37.50
13705;BME280;6924;52.122;9.952;2023-04-30T16:57:36;101050.53;;;14.20;37.98
13705;BME280;6924;52.122;9.952;2023-04-30T17:00:04;101057.28;;;14.01;38.94
13705;BME280;6924;52.122;9.952;2023-04-30T17:02:34;101051.75;;;13.96;38.37
13705;BME280;6924;52.122;9.952;2023-04-30T17:05:01;101041.81;;;13.85;37.95
13705;BME280;6924;52.122;9.952;2023-04-30T17:07:27;101046.94;;;13.74;37.26
13705;BME280;6924;52.122;9.952;2023-04-30T17:09:53;101049.63;;;13.79;38.25
13705;BME280;6924;52.122;9.952;2023-04-30T17:12:20;101050.59;;;13.75;37.57
13705;BME280;6924;52.122;9.952;2023-04-30T17:14:46;101047.56;;;13.71;36.25
13705;BME280;6924;52.122;9.952;2023-04-30T17:17:13;101044.66;;;13.85;37.37
13705;BME280;6924;52.122;9.952;2023-04-30T17:19:40;101041.16;;;13.88;36.74
13705;BME280;6924;52.122;9.952;2023-04-30T17:22:07;101037.00;;;13.94;35.86
13705;BME280;6924;52.122;9.952;2023-04-30T17:24:33;101037.84;;;13.95;35.88
13705;BME280;6924;52.122;9.952;2023-04-30T17:26:59;101047.88;;;13.92;36.80
13705;BME280;6924;52.122;9.952;2023-04-30T17:29:27;101037.00;;;13.94;37.34
13705;BME280;6924;52.122;9.952;2023-04-30T17:31:53;101047.41;;;13.99;37.95
13705;BME280;6924;52.122;9.952;2023-04-30T17:34:20;101043.91;;;14.02;37.63
13705;BME280;6924;52.122;9.952;2023-04-30T17:36:47;101045.38;;;13.99;38.00
13705;BME280;6924;52.122;9.952;2023-04-30T17:39:14;101051.44;;;13.98;37.51
13705;BME280;6924;52.122;9.952;2023-04-30T17:41:41;101055.38;;;13.88;37.06
13705;BME280;6924;52.122;9.952;2023-04-30T17:44:07;101050.50;;;13.89;37.75
13705;BME280;6924;52.122;9.952;2023-04-30T17:46:33;101054.28;;;13.75;38.18
13705;BME280;6924;52.122;9.952;2023-04-30T17:49:00;101047.09;;;13.78;38.93
13705;BME280;6924;52.122;9.952;2023-04-30T17:51:27;101051.78;;;13.74;38.87
13705;BME280;6924;52.122;9.952;2023-04-30T17:53:57;101047.97;;;13.78;39.68
13705;BME280;6924;52.122;9.952;2023-04-30T17:56:25;101046.63;;;13.76;39.38
13705;BME280;6924;52.122;9.952;2023-04-30T17:58:52;101045.94;;;13.79;39.20
13705;BME280;6924;52.122;9.952;2023-04-30T18:01:19;101047.38;;;13.68;39.28
13705;BME280;6924;52.122;9.952;2023-04-30T18:03:46;101041.31;;;13.60;39.32
13705;BME280;6924;52.122;9.952;2023-04-30T18:06:13;101044.28;;;13.55;39.32
13705;BME280;6924;52.122;9.952;2023-04-30T18:08:39;101049.13;;;13.55;39.52
13705;BME280;6924;52.122;9.952;2023-04-30T18:11:07;101039.13;;;13.57;39.82
13705;BME280;6924;52.122;9.952;2023-04-30T18:13:33;101044.63;;;13.54;39.83
13705;BME280;6924;52.122;9.952;2023-04-30T18:16:01;101044.28;;;13.55;40.04
13705;BME280;6924;52.122;9.952;2023-04-30T18:18:27;101046.81;;;13.57;39.71
13705;BME280;6924;52.122;9.952;2023-04-30T18:20:54;101044.28;;;13.55;40.80
13705;BME280;6924;52.122;9.952;2023-04-30T18:23:21;101046.59;;;13.53;40.17
13705;BME280;6924;52.122;9.952;2023-04-30T18:25:47;101043.25;;;13.51;40.48
13705;BME280;6924;52.122;9.952;2023-04-30T18:28:15;101040.22;;;13.48;41.93
13705;BME280;6924;52.122;9.952;2023-04-30T18:30:42;101040.53;;;13.46;41.00
13705;BME280;6924;52.122;9.952;2023-04-30T18:33:09;101040.53;;;13.46;41.55
13705;BME280;6924;52.122;9.952;2023-04-30T18:35:35;101034.47;;;13.39;40.99
13705;BME280;6924;52.122;9.952;2023-04-30T18:38:02;101043.09;;;13.34;41.87
13705;BME280;6924;52.122;9.952;2023-04-30T18:40:29;101038.09;;;13.31;42.52
13705;BME280;6924;52.122;9.952;2023-04-30T18:42:55;101037.84;;;13.27;42.19
13705;BME280;6924;52.122;9.952;2023-04-30T18:45:24;101032.97;;;13.19;42.40
13705;BME280;6924;52.122;9.952;2023-04-30T18:47:50;101037.91;;;13.13;44.44
13705;BME280;6924;52.122;9.952;2023-04-30T18:50:17;101029.31;;;13.05;45.54
13705;BME280;6924;52.122;9.952;2023-04-30T18:52:44;101035.44;;;12.98;45.95
13705;BME280;6924;52.122;9.952;2023-04-30T18:55:11;101036.22;;;12.90;47.17
13705;BME280;6924;52.122;9.952;2023-04-30T18:57:38;101043.16;;;12.84;47.43
13705;BME280;6924;52.122;9.952;2023-04-30T19:00:06;101041.72;;;12.72;47.63
13705;BME280;6924;52.122;9.952;2023-04-30T19:02:34;101035.06;;;12.63;48.27
13705;BME280;6924;52.122;9.952;2023-04-30T19:05:01;101042.13;;;12.52;48.03
13705;BME280;6924;52.122;9.952;2023-04-30T19:07:27;101050.53;;;12.43;48.49
13705;BME280;6924;52.122;9.952;2023-04-30T19:09:54;101048.47;;;12.35;49.02
13705;BME280;6924;52.122;9.952;2023-04-30T19:12:20;101052.34;;;12.25;49.84
13705;BME280;6924;52.122;9.952;2023-04-30T19:14:47;101050.25;;;12.17;50.27
13705;BME280;6924;52.122;9.952;2023-04-30T19:17:13;101051.03;;;12.04;51.66
13705;BME280;6924;52.122;9.952;2023-04-30T19:19:42;101054.69;;;11.90;51.95
13705;BME280;6924;52.122;9.952;2023-04-30T19:22:08;101046.56;;;11.84;51.78
13705;BME280;6924;52.122;9.952;2023-04-30T19:24:35;101054.94;;;11.75;52.04
13705;BME280;6924;52.122;9.952;2023-04-30T19:27:02;101063.00;;;11.68;52.53
13705;BME280;6924;52.122;9.952;2023-04-30T19:29:29;101061.41;;;11.62;53.58
13705;BME280;6924;52.122;9.952;2023-04-30T19:31:56;101058.16;;;11.54;54.28
13705;BME280;6924;52.122;9.952;2023-04-30T19:34:23;101058.00;;;11.46;54.70
13705;BME280;6924;52.122;9.952;2023-04-30T19:36:51;101058.41;;;11.39;55.47
13705;BME280;6924;52.122;9.952;2023-04-30T19:39:18;101050.09;;;11.29;56.28
13705;BME280;6924;52.122;9.952;2023-04-30T19:41:44;101065.09;;;11.10;56.38
13705;BME280;6924;52.122;9.952;2023-04-30T19:44:12;101059.66;;;10.95;57.05
13705;BME280;6924;52.122;9.952;2023-04-30T19:46:38;101063.88;;;10.79;56.15
13705;BME280;6924;52.122;9.952;2023-04-30T19:49:06;101063.75;;;10.65;56.16
13705;BME280;6924;52.122;9.952;2023-04-30T19:51:33;101059.31;;;10.59;56.54
13705;BME280;6924;52.122;9.952;2023-04-30T19:54:01;101058.25;;;10.54;57.54
13705;BME280;6924;52.122;9.952;2023-04-30T19:56:27;101054.94;;;10.47;58.07
13705;BME280;6924;52.122;9.952;2023-04-30T19:58:55;101053.38;;;10.36;57.94
13705;BME280;6924;52.122;9.952;2023-04-30T20:01:21;101056.97;;;10.18;58.24
13705;BME280;6924;52.122;9.952;2023-04-30T20:03:47;101057.94;;;10.08;58.82
13705;BME280;6924;52.122;9.952;2023-04-30T20:06:14;101055.50;;;9.96;59.76
13705;BME280;6924;52.122;9.952;2023-04-30T20:08:40;101059.00;;;9.88;59.70
13705;BME280;6924;52.122;9.952;2023-04-30T20:11:08;101058.25;;;9.77;60.22
13705;BME280;6924;52.122;9.952;2023-04-30T20:13:34;101058.03;;;9.68;60.60
13705;BME280;6924;52.122;9.952;2023-04-30T20:16:01;101052.19;;;9.60;60.82
13705;BME280;6924;52.122;9.952;2023-04-30T20:18:28;101049.94;;;9.57;61.36
13705;BME280;6924;52.122;9.952;2023-04-30T20:20:55;101048.56;;;9.54;62.03
13705;BME280;6924;52.122;9.952;2023-04-30T20:23:21;101056.81;;;9.45;61.73
13705;BME280;6924;52.122;9.952;2023-04-30T20:25:48;101056.00;;;9.45;62.71
13705;BME280;6924;52.122;9.952;2023-04-30T20:28:17;101053.25;;;9.35;63.22
13705;BME280;6924;52.122;9.952;2023-04-30T20:30:43;101047.22;;;9.12;64.67
13705;BME280;6924;52.122;9.952;2023-04-30T20:33:13;101040.50;;;9.03;65.08
13705;BME280;6924;52.122;9.952;2023-04-30T20:35:39;101049.25;;;9.06;65.26
13705;BME280;6924;52.122;9.952;2023-04-30T20:38:08;101053.78;;;9.02;64.67
13705;BME280;6924;52.122;9.952;2023-04-30T20:40:35;101046.22;;;8.93;65.23
13705;BME280;6924;52.122;9.952;2023-04-30T20:43:04;101042.56;;;8.92;66.18
13705;BME280;6924;52.122;9.952;2023-04-30T20:45:32;101047.09;;;8.88;66.23
13705;BME280;6924;52.122;9.952;2023-04-30T20:47:58;101035.91;;;8.78;66.26
13705;BME280;6924;52.122;9.952;2023-04-30T20:50:24;101037.59;;;8.74;66.21
13705;BME280;6924;52.122;9.952;2023-04-30T20:52:51;101034.78;;;8.68;66.32
13705;BME280;6924;52.122;9.952;2023-04-30T20:55:18;101031.97;;;8.68;66.79
13705;BME280;6924;52.122;9.952;2023-04-30T20:57:44;101030.91;;;8.59;67.07
13705;BME280;6924;52.122;9.952;2023-04-30T21:00:11;101034.03;;;8.53;66.03
13705;BME280;6924;52.122;9.952;2023-04-30T21:02:39;101031.53;;;8.51;66.37
13705;BME280;6924;52.122;9.952;2023-04-30T21:05:07;101027.56;;;8.52;66.92
13705;BME280;6924;52.122;9.952;2023-04-30T21:07:34;101021.66;;;8.54;67.10
13705;BME280;6924;52.122;9.952;2023-04-30T21:10:00;101020.81;;;8.48;67.63
13705;BME280;6924;52.122;9.952;2023-04-30T21:12:27;101026.72;;;8.46;68.35
13705;BME280;6924;52.122;9.952;2023-04-30T21:14:54;101023.06;;;8.46;68.02
13705;BME280;6924;52.122;9.952;2023-04-30T21:17:20;101015.78;;;8.35;67.71
13705;BME280;6924;52.122;9.952;2023-04-30T21:19:48;101021.69;;;8.33;67.72
13705;BME280;6924;52.122;9.952;2023-04-30T21:22:14;101025.13;;;8.25;68.47
13705;BME280;6924;52.122;9.952;2023-04-30T21:24:41;101022.03;;;8.21;68.33
13705;BME280;6924;52.122;9.952;2023-04-30T21:27:08;101028.25;;;8.18;68.66
13705;BME280;6924;52.122;9.952;2023-04-30T21:29:35;101020.69;;;8.14;68.72
13705;BME280;6924;52.122;9.952;2023-04-30T21:32:02;101027.69;;;8.11;69.10
13705;BME280;6924;52.122;9.952;2023-04-30T21:34:29;101019.28;;;8.06;69.29
13705;BME280;6924;52.122;9.952;2023-04-30T21:36:57;101018.19;;;7.97;68.85
13705;BME280;6924;52.122;9.952;2023-04-30T21:39:24;101023.81;;;7.97;69.03
13705;BME280;6924;52.122;9.952;2023-04-30T21:41:50;101019.03;;;7.92;69.70
13705;BME280;6924;52.122;9.952;2023-04-30T21:44:16;101020.47;;;7.90;70.22
13705;BME280;6924;52.122;9.952;2023-04-30T21:46:43;101015.13;;;7.83;70.51
13705;BME280;6924;52.122;9.952;2023-04-30T21:49:10;101014.84;;;7.79;71.05
13705;BME280;6924;52.122;9.952;2023-04-30T21:51:37;101015.44;;;7.76;71.42
13705;BME280;6924;52.122;9.952;2023-04-30T21:54:05;101012.91;;;7.70;70.72
13705;BME280;6924;52.122;9.952;2023-04-30T21:56:31;101010.41;;;7.63;71.22
13705;BME280;6924;52.122;9.952;2023-04-30T21:58:57;101006.72;;;7.57;71.36
13705;BME280;6924;52.122;9.952;2023-04-30T22:01:24;101005.91;;;7.57;71.21
13705;BME280;6924;52.122;9.952;2023-04-30T22:03:53;101004.50;;;7.54;71.77
13705;BME280;6924;52.122;9.952;2023-04-30T22:06:20;101012.94;;;7.54;71.97
13705;BME280;6924;52.122;9.952;2023-04-30T22:08:46;101011.81;;;7.50;72.14
13705;BME280;6924;52.122;9.952;2023-04-30T22:11:14;101001.09;;;7.47;72.00
13705;BME280;6924;52.122;9.952;2023-04-30T22:13:41;101003.34;;;7.45;71.97
13705;BME280;6924;52.122;9.952;2023-04-30T22:16:08;101004.78;;;7.42;72.01
13705;BME280;6924;52.122;9.952;2023-04-30T22:18:35;101000.56;;;7.40;72.03
13705;BME280;6924;52.122;9.952;2023-04-30T22:21:01;101002.56;;;7.34;72.92
13705;BME280;6924;52.122;9.952;2023-04-30T22:23:28;100993.53;;;7.22;72.63
13705;BME280;6924;52.122;9.952;2023-04-30T22:25:54;100993.25;;;7.18;72.67
13705;BME280;6924;52.122;9.952;2023-04-30T22:28:22;100992.97;;;7.10;72.37
13705;BME280;6924;52.122;9.952;2023-04-30T22:30:48;100994.09;;;7.09;72.23
13705;BME280;6924;52.122;9.952;2023-04-30T22:33:15;100992.97;;;7.04;72.68
13705;BME280;6924;52.122;9.952;2023-04-30T22:35:41;100995.50;;;7.01;72.72
13705;BME280;6924;52.122;9.952;2023-04-30T22:38:07;100994.69;;;6.90;72.65
13705;BME280;6924;52.122;9.952;2023-04-30T22:40:37;100991.00;;;6.79;73.04
13705;BME280;6924;52.122;9.952;2023-04-30T22:43:04;100989.56;;;6.61;72.85
13705;BME280;6924;52.122;9.952;2023-04-30T22:45:32;100990.09;;;6.48;73.75
13705;BME280;6924;52.122;9.952;2023-04-30T22:48:02;100996.25;;;6.45;74.31
13705;BME280;6924;52.122;9.952;2023-04-30T22:50:29;100987.53;;;6.41;74.68
13705;BME280;6924;52.122;9.952;2023-04-30T22:52:55;100987.78;;;6.30;74.83
13705;BME280;6924;52.122;9.952;2023-04-30T22:55:22;100981.31;;;6.24;75.29
13705;BME280;6924;52.122;9.952;2023-04-30T22:57:49;100977.66;;;6.24;75.40
13705;BME280;6924;52.122;9.952;2023-04-30T23:00:16;100986.38;;;6.27;75.44
13705;BME280;6924;52.122;9.952;2023-04-30T23:02:45;100988.34;;;6.27;76.09
13705;BME280;6924;52.122;9.952;2023-04-30T23:05:12;100975.41;;;6.20;76.19
13705;BME280;6924;52.122;9.952;2023-04-30T23:07:38;100975.41;;;6.15;75.91
13705;BME280;6924;52.122;9.952;2023-04-30T23:10:05;100980.97;;;6.05;76.62
13705;BME280;6924;52.122;9.952;2023-04-30T23:12:31;100972.81;;;6.04;77.39
13705;BME280;6924;52.122;9.952;2023-04-30T23:14:59;100973.66;;;6.04;77.03
13705;BME280;6924;52.122;9.952;2023-04-30T23:17:25;100973.94;;;6.03;76.99
13705;BME280;6924;52.122;9.952;2023-04-30T23:19:53;100972.22;;;6.02;77.60
13705;BME280;6924;52.122;9.952;2023-04-30T23:22:19;100969.16;;;6.03;77.32
13705;BME280;6924;52.122;9.952;2023-04-30T23:24:46;100964.69;;;6.02;76.76
13705;BME280;6924;52.122;9.952;2023-04-30T23:27:12;100966.63;;;6.02;77.20
13705;BME280;6924;52.122;9.952;2023-04-30T23:29:38;100969.16;;;5.98;77.69
13705;BME280;6924;52.122;9.952;2023-04-30T23:32:05;100969.03;;;5.83;77.69
13705;BME280;6924;52.122;9.952;2023-04-30T23:34:31;100964.84;;;5.85;78.39
13705;BME280;6924;52.122;9.952;2023-04-30T23:36:59;100969.31;;;5.81;78.33
13705;BME280;6924;52.122;9.952;2023-04-30T23:39:25;100965.06;;;5.73;78.27
13705;BME280;6924;52.122;9.952;2023-04-30T23:41:52;100963.34;;;5.67;77.79
13705;BME280;6924;52.122;9.952;2023-04-30T23:44:18;100955.78;;;5.68;78.06
13705;BME280;6924;52.122;9.952;2023-04-30T23:46:45;100967.84;;;5.68;78.04
13705;BME280;6924;52.122;9.952;2023-04-30T23:49:11;100968.13;;;5.67;78.08
13705;BME280;6924;52.122;9.952;2023-04-30T23:51:37;100959.13;;;5.65;78.03
13705;BME280;6924;52.122;9.952;2023-04-30T23:54:05;100957.09;;;5.55;78.11
13705;BME280;6924;52.122;9.952;2023-04-30T23:56:32;100962.69;;;5.50;78.17
13705;BME280;6924;52.122;9.952;2023-04-30T23:58:58;100952.53;;;5.38;78.41
